createdAt,value
2022-12-26T00:01:40.956Z,30.33
2022-12-26T00:04:51.273Z,35.72
2022-12-26T00:07:55.340Z,33.75
2022-12-26T00:10:57.634Z,34.83
2022-12-26T00:14:01.083Z,33.88
2022-12-26T00:17:03.395Z,39.55
2022-12-26T00:20:06.204Z,34.90
2022-12-26T00:23:08.806Z,38.80
2022-12-26T00:26:12.294Z,39.83
2022-12-26T00:29:14.665Z,34.03
2022-12-26T00:32:16.964Z,37.97
2022-12-26T00:35:19.207Z,39.58
2022-12-26T00:38:21.553Z,35.88
2022-12-26T00:41:24.177Z,38.37
2022-12-26T00:44:26.439Z,41.38
2022-12-26T00:47:28.942Z,34.80
2022-12-26T00:50:34.671Z,41.80
2022-12-26T00:53:37.325Z,39.67
2022-12-26T00:56:39.544Z,46.63
2022-12-26T00:59:41.817Z,38.83
2022-12-26T01:02:44.240Z,43.30
2022-12-26T01:05:49.677Z,38.45
2022-12-26T01:08:52.894Z,47.83
2022-12-26T01:11:55.110Z,40.03
2022-12-26T01:14:57.880Z,44.75
2022-12-26T01:18:00.479Z,49.22
2022-12-26T01:21:07.510Z,44.58
2022-12-26T01:24:09.656Z,47.63
2022-12-26T01:27:11.896Z,44.03
2022-12-26T01:30:14.196Z,42.20
2022-12-26T01:33:16.413Z,45.05
2022-12-26T01:36:18.843Z,43.90
2022-12-26T01:39:21.366Z,47.15
2022-12-26T01:42:25.125Z,44.67
2022-12-26T01:45:31.973Z,42.47
2022-12-26T01:48:34.575Z,51.00
2022-12-26T01:51:40.251Z,41.13
2022-12-26T01:54:43.960Z,44.17
2022-12-26T01:57:48.722Z,48.27
2022-12-26T02:00:51.602Z,46.70
2022-12-26T02:04:12.448Z,45.33
2022-12-26T02:07:14.818Z,43.33
2022-12-26T02:10:21.268Z,45.63
2022-12-26T02:13:23.931Z,46.90
2022-12-26T02:16:26.320Z,45.33
2022-12-26T02:19:46.714Z,46.00
2022-12-26T02:23:12.148Z,42.20
2022-12-26T02:26:23.700Z,41.17
2022-12-26T02:29:29.155Z,43.10
2022-12-26T02:32:40.501Z,43.28
2022-12-26T02:35:55.551Z,45.03
2022-12-26T02:39:00.772Z,47.88
2022-12-26T02:42:05.938Z,47.78
2022-12-26T02:45:26.958Z,47.40
2022-12-26T02:48:43.976Z,43.38
2022-12-26T02:52:13.919Z,49.80
2022-12-26T02:55:36.351Z,46.78
2022-12-26T02:59:16.666Z,48.72
2022-12-26T03:02:49.982Z,47.43
2022-12-26T03:06:19.435Z,48.75
2022-12-26T03:10:00.829Z,45.75
2022-12-26T03:13:11.678Z,44.22
2022-12-26T03:16:33.271Z,49.60
2022-12-26T03:19:37.605Z,47.30
2022-12-26T03:22:56.774Z,53.80
2022-12-26T03:26:19.145Z,62.80
2022-12-26T03:29:41.038Z,62.75
2022-12-26T03:32:44.297Z,56.47
2022-12-26T03:35:46.540Z,71.60
2022-12-26T03:39:07.669Z,69.47
2022-12-26T03:42:44.276Z,77.50
2022-12-26T03:46:13.758Z,62.97
2022-12-26T03:50:01.109Z,68.68
2022-12-26T03:53:31.505Z,68.63
2022-12-26T03:56:54.414Z,63.42
2022-12-26T04:00:18.279Z,59.58
2022-12-26T04:03:40.670Z,57.65
2022-12-26T04:07:09.289Z,82.80
2022-12-26T04:10:32.816Z,88.97
2022-12-26T04:14:12.170Z,97.80
2022-12-26T04:17:41.349Z,81.55
2022-12-26T04:21:36.247Z,119.30
2022-12-26T04:25:03.348Z,114.43
2022-12-26T04:28:24.243Z,114.93
2022-12-26T04:31:50.865Z,109.38
2022-12-26T04:35:23.996Z,122.22
2022-12-26T04:38:47.885Z,95.78
2022-12-26T04:42:09.695Z,88.47
2022-12-26T04:45:13.515Z,102.20
2022-12-26T04:48:34.473Z,91.43
2022-12-26T04:51:36.799Z,112.63
2022-12-26T04:54:39.330Z,112.22
2022-12-26T04:57:41.649Z,95.83
2022-12-26T05:00:43.977Z,101.73
2022-12-26T05:04:09.443Z,104.47
2022-12-26T05:07:49.182Z,78.53
2022-12-26T05:10:51.393Z,76.15
2022-12-26T05:13:54.420Z,84.87
2022-12-26T05:17:15.017Z,65.57
2022-12-26T05:20:49.575Z,68.95
2022-12-26T05:24:10.166Z,68.72
2022-12-26T05:27:32.542Z,62.15
2022-12-26T05:30:34.763Z,63.97
2022-12-26T05:33:55.571Z,55.77
2022-12-26T05:36:59.016Z,53.75
2022-12-26T05:40:01.579Z,58.10
2022-12-26T05:43:03.802Z,57.25
2022-12-26T05:46:07.731Z,53.03
2022-12-26T05:49:10.093Z,57.17
2022-12-26T05:52:12.303Z,56.10
2022-12-26T05:55:14.530Z,50.53
2022-12-26T05:58:16.946Z,56.03
2022-12-26T06:01:19.994Z,54.13
2022-12-26T06:04:22.327Z,71.60
2022-12-26T06:07:24.833Z,70.32
2022-12-26T06:10:29.597Z,69.43
2022-12-26T06:13:32.291Z,77.35
2022-12-26T06:16:34.603Z,71.00
2022-12-26T06:19:41.354Z,71.77
2022-12-26T06:22:46.994Z,73.45
2022-12-26T06:25:56.082Z,65.03
2022-12-26T06:28:58.307Z,54.00
2022-12-26T06:32:00.762Z,59.10
2022-12-26T06:35:03.159Z,61.37
2022-12-26T06:38:05.523Z,64.88
2022-12-26T06:41:08.883Z,58.00
2022-12-26T06:44:17.794Z,73.20
2022-12-26T06:47:20.491Z,65.13
2022-12-26T06:50:23.355Z,53.57
2022-12-26T06:53:25.565Z,59.75
2022-12-26T06:56:28.407Z,50.45
2022-12-26T06:59:30.671Z,55.75
2022-12-26T07:02:32.989Z,61.78
2022-12-26T07:05:38.941Z,58.07
2022-12-26T07:08:41.184Z,64.05
2022-12-26T07:11:44.763Z,76.22
2022-12-26T07:14:47.241Z,71.75
2022-12-26T07:17:49.445Z,90.63
2022-12-26T07:20:51.606Z,92.53
2022-12-26T07:23:54.616Z,110.60
2022-12-26T07:26:56.922Z,104.72
2022-12-26T07:29:59.176Z,105.43
2022-12-26T07:33:01.558Z,108.72
2022-12-26T07:36:05.085Z,108.57
2022-12-26T07:39:07.435Z,114.53
2022-12-26T07:42:10.231Z,111.03
2022-12-26T07:45:12.409Z,106.53
2022-12-26T07:48:14.691Z,94.85
2022-12-26T07:51:17.044Z,89.40
2022-12-26T07:54:19.793Z,94.07
2022-12-26T07:57:47.560Z,90.85
2022-12-26T08:00:44.264Z,95.18
2022-12-26T08:03:48.240Z,79.72
2022-12-26T08:06:50.605Z,67.67
2022-12-26T08:09:52.868Z,70.40
2022-12-26T08:12:55.208Z,61.72
2022-12-26T08:15:57.917Z,73.25
2022-12-26T08:19:02.974Z,72.88
2022-12-26T08:22:05.853Z,74.00
2022-12-26T08:25:08.642Z,82.20
2022-12-26T08:28:10.888Z,83.38
2022-12-26T08:31:13.545Z,85.10
2022-12-26T08:34:15.795Z,81.60
2022-12-26T08:37:18.101Z,90.13
2022-12-26T08:40:39.905Z,95.05
2022-12-26T08:44:24.870Z,92.13
2022-12-26T08:47:05.171Z,105.72
2022-12-26T08:50:07.459Z,100.40
2022-12-26T08:53:09.720Z,89.13
2022-12-26T08:56:13.784Z,86.05
2022-12-26T08:59:16.351Z,86.60
2022-12-26T09:02:18.799Z,79.97
2022-12-26T09:05:21.441Z,83.95
2022-12-26T09:08:23.614Z,78.33
2022-12-26T09:11:27.052Z,71.57
2022-12-26T09:14:29.407Z,74.07
2022-12-26T09:17:31.674Z,71.53
2022-12-26T09:20:33.980Z,67.15
2022-12-26T09:23:36.777Z,65.00
2022-12-26T09:26:39.185Z,63.83
2022-12-26T09:29:41.580Z,65.43
2022-12-26T09:32:43.827Z,66.32
2022-12-26T09:35:46.377Z,56.50
2022-12-26T09:38:49.359Z,59.97
2022-12-26T09:42:00.411Z,63.88
2022-12-26T09:45:14.811Z,60.08
2022-12-26T09:48:23.754Z,56.50
2022-12-26T09:51:26.991Z,64.95
2022-12-26T09:54:44.164Z,61.20
2022-12-26T09:57:49.232Z,58.50
2022-12-26T10:00:53.994Z,53.78
2022-12-26T10:03:57.701Z,52.03
2022-12-26T10:07:06.060Z,54.10
2022-12-26T10:10:10.115Z,46.87
2022-12-26T10:13:18.737Z,52.85
2022-12-26T10:16:24.550Z,49.03
2022-12-26T10:19:42.066Z,52.85
2022-12-26T10:22:52.218Z,51.88
2022-12-26T10:25:54.492Z,54.30
2022-12-26T10:29:02.281Z,51.67
2022-12-26T10:32:12.148Z,52.70
2022-12-26T10:35:28.771Z,48.55
2022-12-26T10:38:37.557Z,49.88
2022-12-26T10:41:42.869Z,48.97
2022-12-26T10:44:45.077Z,55.33
2022-12-26T10:47:48.328Z,52.53
2022-12-26T10:50:50.603Z,54.10
2022-12-26T10:53:53.678Z,51.45
2022-12-26T10:56:57.108Z,47.47
2022-12-26T10:59:59.721Z,49.10
2022-12-26T11:03:03.992Z,49.47
2022-12-26T11:06:08.474Z,48.85
2022-12-26T11:09:30.291Z,51.45
2022-12-26T11:12:42.781Z,49.53
2022-12-26T11:15:49.587Z,44.88
2022-12-26T11:18:52.290Z,43.70
2022-12-26T11:21:54.651Z,46.85
2022-12-26T11:25:15.706Z,44.92
2022-12-26T11:28:21.365Z,43.57
2022-12-26T11:31:26.902Z,44.22
2022-12-26T11:34:34.520Z,52.85
2022-12-26T11:37:41.652Z,55.33
2022-12-26T11:41:08.191Z,51.47
2022-12-26T11:44:10.418Z,51.23
2022-12-26T11:47:13.488Z,54.00
2022-12-26T11:50:21.362Z,54.90
2022-12-26T11:53:23.590Z,50.97
2022-12-26T11:56:27.047Z,47.97
2022-12-26T11:59:29.453Z,45.53
2022-12-26T12:02:32.515Z,52.15
2022-12-26T12:05:53.393Z,51.15
2022-12-26T12:09:05.417Z,48.70
2022-12-26T12:12:22.709Z,46.65
2022-12-26T12:15:41.401Z,46.37
2022-12-26T12:18:50.420Z,47.67
2022-12-26T12:21:55.831Z,46.83
2022-12-26T12:24:58.512Z,52.42
2022-12-26T12:28:08.012Z,47.42
2022-12-26T12:31:25.624Z,48.67
2022-12-26T12:34:43.262Z,48.40
2022-12-26T12:38:04.491Z,50.95
2022-12-26T12:41:11.197Z,47.92
2022-12-26T12:44:14.924Z,53.15
2022-12-26T12:47:17.142Z,51.30
2022-12-26T12:50:31.326Z,50.80
2022-12-26T12:53:36.746Z,47.72
2022-12-26T12:56:54.215Z,48.38
2022-12-26T12:59:56.416Z,43.08
2022-12-26T13:03:05.253Z,41.47
2022-12-26T13:06:07.728Z,38.90
2022-12-26T13:09:16.554Z,36.10
2022-12-26T13:12:21.302Z,34.22
2022-12-26T13:15:23.504Z,31.02
2022-12-26T13:18:29.573Z,31.67
2022-12-26T13:21:35.272Z,38.15
2022-12-26T13:24:43.367Z,37.17
2022-12-26T13:27:46.786Z,39.28
2022-12-26T13:30:53.178Z,36.35
2022-12-26T13:33:56.312Z,34.97
2022-12-26T13:36:59.644Z,38.03
2022-12-26T13:40:03.336Z,35.63
2022-12-26T13:43:24.331Z,36.45
2022-12-26T13:46:32.876Z,32.25
2022-12-26T13:49:36.566Z,33.83
2022-12-26T13:52:40.213Z,35.88
2022-12-26T13:55:43.177Z,30.58
2022-12-26T13:58:54.446Z,30.35
2022-12-26T14:01:58.285Z,30.98
2022-12-26T14:05:14.738Z,28.87
2022-12-26T14:08:29.625Z,32.20
2022-12-26T14:11:31.854Z,32.78
2022-12-26T14:14:34.068Z,32.85
2022-12-26T14:17:54.833Z,32.97
2022-12-26T14:21:12.416Z,44.97
2022-12-26T14:24:37.983Z,55.35
2022-12-26T14:28:03.565Z,52.13
2022-12-26T14:31:11.331Z,51.38
2022-12-26T14:34:32.357Z,52.83
2022-12-26T14:38:03.931Z,57.63
2022-12-26T14:41:07.889Z,61.97
2022-12-26T14:44:18.185Z,56.35
2022-12-26T14:47:39.239Z,55.72
2022-12-26T14:50:44.823Z,52.58
2022-12-26T14:54:06.968Z,48.90
2022-12-26T14:57:28.074Z,55.67
2022-12-26T15:00:31.647Z,51.20
2022-12-26T15:03:40.761Z,53.55
2022-12-26T15:06:46.011Z,58.83
2022-12-26T15:09:56.639Z,57.80
2022-12-26T15:13:11.049Z,54.20
2022-12-26T15:16:31.504Z,50.55
2022-12-26T15:19:52.366Z,53.03
2022-12-26T15:23:12.918Z,68.47
2022-12-26T15:26:24.111Z,71.03
2022-12-26T15:29:46.008Z,67.30
2022-12-26T15:32:57.461Z,68.55
2022-12-26T15:36:14.771Z,67.10
2022-12-26T15:39:35.901Z,73.15
2022-12-26T15:42:42.782Z,62.27
2022-12-26T15:45:45.314Z,74.50
2022-12-26T15:49:06.024Z,58.17
2022-12-26T15:52:24.591Z,72.20
2022-12-26T15:55:36.647Z,76.45
2022-12-26T15:58:38.853Z,81.67
2022-12-26T16:01:42.556Z,85.25
2022-12-26T16:04:48.935Z,88.90
2022-12-26T16:07:54.415Z,100.28
2022-12-26T16:11:26.285Z,99.55
2022-12-26T16:14:33.669Z,118.77
2022-12-26T16:17:36.285Z,116.63
2022-12-26T16:20:57.381Z,128.10
2022-12-26T16:24:00.203Z,133.35
2022-12-26T16:27:03.820Z,131.93
2022-12-26T16:30:11.957Z,114.97
2022-12-26T16:33:14.905Z,111.05
2022-12-26T16:36:21.652Z,125.30
2022-12-26T16:39:23.965Z,133.88
2022-12-26T16:42:29.138Z,115.68
2022-12-26T16:45:33.447Z,103.90
2022-12-26T16:48:36.023Z,119.80
2022-12-26T16:51:38.266Z,132.65
2022-12-26T16:54:42.454Z,112.53
2022-12-26T16:57:44.679Z,102.35
2022-12-26T17:01:07.739Z,99.60
2022-12-26T17:04:13.232Z,95.65
2022-12-26T17:07:16.584Z,87.55
2022-12-26T17:10:20.388Z,91.43
2022-12-26T17:13:24.912Z,99.88
2022-12-26T17:16:28.505Z,104.83
2022-12-26T17:19:32.055Z,92.30
2022-12-26T17:22:35.320Z,106.90
2022-12-26T17:25:37.564Z,101.07
2022-12-26T17:28:39.718Z,115.85
2022-12-26T17:31:43.413Z,109.37
2022-12-26T17:34:45.704Z,120.22
2022-12-26T17:37:50.298Z,97.95
2022-12-26T17:40:54.197Z,101.50
2022-12-26T17:43:57.722Z,100.80
2022-12-26T17:47:01.940Z,104.20
2022-12-26T17:50:04.347Z,88.13
2022-12-26T17:53:12.755Z,93.05
2022-12-26T17:56:21.033Z,108.00
2022-12-26T17:59:23.400Z,105.50
2022-12-26T18:02:25.726Z,115.93
2022-12-26T18:05:28.204Z,123.40
2022-12-26T18:08:34.640Z,163.93
2022-12-26T18:11:36.938Z,145.57
2022-12-26T18:14:39.364Z,439.57
2022-12-26T18:17:42.113Z,473.33
2022-12-26T18:20:44.498Z,168.50
2022-12-26T18:23:46.835Z,374.67
2022-12-26T18:26:49.921Z,131.95
2022-12-26T18:29:52.241Z,98.37
2022-12-26T18:32:54.927Z,210.07
2022-12-26T18:35:57.303Z,357.42
2022-12-26T18:38:59.839Z,244.10
2022-12-26T18:42:02.196Z,111.63
2022-12-26T18:45:04.888Z,107.17
2022-12-26T18:48:08.085Z,103.47
2022-12-26T18:51:10.423Z,134.32
2022-12-26T18:54:12.647Z,125.65
2022-12-26T18:57:19.658Z,123.28
2022-12-26T19:00:22.513Z,147.33
2022-12-26T19:03:27.854Z,132.53
2022-12-26T19:06:35.163Z,137.50
2022-12-26T19:09:37.506Z,136.63
2022-12-26T19:12:39.710Z,144.75
2022-12-26T19:15:44.919Z,126.77
2022-12-26T19:18:47.164Z,129.47
2022-12-26T19:21:49.403Z,142.10
2022-12-26T19:24:51.684Z,151.10
2022-12-26T19:27:54.310Z,149.70
2022-12-26T19:30:56.566Z,129.73
2022-12-26T19:33:58.998Z,163.73
2022-12-26T19:37:01.334Z,162.73
2022-12-26T19:40:04.750Z,171.30
2022-12-26T19:43:07.063Z,189.75
2022-12-26T19:46:12.841Z,196.37
2022-12-26T19:49:15.148Z,172.70
2022-12-26T19:52:17.587Z,195.93
2022-12-26T19:55:19.949Z,217.40
2022-12-26T19:58:22.500Z,222.88
2022-12-26T20:01:26.541Z,229.80
2022-12-26T20:04:28.898Z,220.50
2022-12-26T20:07:31.261Z,225.80
2022-12-26T20:10:33.765Z,185.55
2022-12-26T20:13:36.223Z,158.85
2022-12-26T20:17:04.432Z,146.40
2022-12-26T20:20:00.957Z,172.90
2022-12-26T20:23:03.180Z,233.27
2022-12-26T20:26:07.879Z,206.40
2022-12-26T20:29:10.124Z,230.15
2022-12-26T20:32:12.469Z,195.33
2022-12-26T20:35:15.151Z,195.97
2022-12-26T20:38:17.372Z,202.43
2022-12-26T20:41:20.567Z,206.88
2022-12-26T20:44:24.545Z,201.02
2022-12-26T20:47:26.849Z,189.50
2022-12-26T20:50:29.247Z,164.57
2022-12-26T20:53:31.660Z,175.63
2022-12-26T20:56:34.756Z,164.05
2022-12-26T20:59:37.468Z,149.57
2022-12-26T21:02:39.869Z,136.67
2022-12-26T21:05:42.345Z,136.27
2022-12-26T21:08:46.165Z,153.10
2022-12-26T21:11:48.554Z,126.13
2022-12-26T21:14:51.099Z,126.13
2022-12-26T21:17:53.301Z,119.25
2022-12-26T21:20:55.480Z,116.67
2022-12-26T21:24:02.692Z,129.50
2022-12-26T21:27:05.128Z,127.28
2022-12-26T21:30:07.632Z,126.95
2022-12-26T21:33:09.950Z,146.45
2022-12-26T21:36:13.043Z,151.80
2022-12-26T21:39:15.450Z,174.55
2022-12-26T21:42:17.725Z,171.55
2022-12-26T21:45:19.928Z,173.50
2022-12-26T21:48:22.286Z,184.20
2022-12-26T21:51:25.928Z,167.90
2022-12-26T21:54:49.024Z,145.60
2022-12-26T21:57:51.873Z,144.80
2022-12-26T22:00:54.020Z,143.52
2022-12-26T22:04:14.866Z,135.13
2022-12-26T22:07:17.048Z,117.63
2022-12-26T22:10:38.127Z,110.07
2022-12-26T22:13:41.570Z,113.60
2022-12-26T22:16:43.887Z,121.95
2022-12-26T22:19:46.237Z,99.90
2022-12-26T22:22:49.333Z,100.47
2022-12-26T22:25:55.270Z,109.57
2022-12-26T22:28:58.139Z,93.38
2022-12-26T22:32:00.408Z,95.00
2022-12-26T22:35:03.018Z,91.07
2022-12-26T22:38:05.269Z,83.50
2022-12-26T22:41:07.672Z,90.50
2022-12-26T22:44:09.900Z,82.00
2022-12-26T22:47:12.263Z,88.93
2022-12-26T22:50:16.273Z,85.45
2022-12-26T22:53:18.651Z,79.37
2022-12-26T22:56:20.928Z,95.57
2022-12-26T22:59:58.008Z,100.20
2022-12-26T23:02:45.541Z,98.00
2022-12-26T23:05:48.147Z,85.80
2022-12-26T23:08:51.177Z,84.27
2022-12-26T23:12:11.959Z,90.50
2022-12-26T23:15:15.559Z,102.00
2022-12-26T23:18:39.535Z,110.38
2022-12-26T23:21:42.372Z,149.10
2022-12-26T23:24:44.858Z,134.50
2022-12-26T23:28:05.786Z,129.13
2022-12-26T23:31:08.714Z,147.18
2022-12-26T23:34:11.077Z,140.18
2022-12-26T23:37:13.216Z,130.80
2022-12-26T23:40:16.449Z,144.03
2022-12-26T23:43:18.697Z,147.50
2022-12-26T23:46:21.038Z,140.70
2022-12-26T23:49:23.279Z,127.57
2022-12-26T23:52:30.067Z,134.88
2022-12-26T23:55:32.803Z,122.00
2022-12-26T23:58:35.161Z,115.82
